Time;durP1;ratioP1;P1;durP2;ratioP2;P2;SDS_P1;SDS_P2;PMS_P1;PMS_P2;Temp;Humidity;BMP_temperature;BMP_pressure;BME280_temperature;BME280_humidity;BME280_pressure;Samples;Min_cycle;Max_cycle;Signal;HPM_P1;HPM_P2
2022/01/21 00:01:18;;;;;;;;;;;;;;;4.52;50.05;100117.34;4441311;32;33579;-87
2022/01/21 00:03:46;;;;;;;;;;;;;;;4.28;50.35;100121.56;4418952;32;34375;-85
2022/01/21 00:06:13;;;;;;;;;;;;;;;4.22;50.60;100114.03;4444251;32;35855;-86
2022/01/21 00:08:41;;;;;;;;;;;;;;;4.48;50.16;100109.72;4442302;32;32918;-86
2022/01/21 00:11:09;;;;;;;;;;;;;;;4.43;50.50;100120.56;4447407;32;32651;-83
2022/01/21 00:13:37;;;;;;;;;;;;;;;4.00;51.28;100118.13;4442877;32;33788;-86
2022/01/21 00:16:09;;;;;;;;;;;;;;;4.24;50.83;100129.75;4440492;32;35294;-83
2022/01/21 00:18:38;;;;;;;;;;;;;;;4.09;51.64;100125.44;4443111;32;34240;-87
2022/01/21 00:32:11;;;;;;;;;;;;;;;2.72;54.38;100137.34;4440527;32;33044;-88
2022/01/21 00:34:38;;;;;;;;;;;;;;;2.87;53.83;100135.50;4447593;32;34566;-86
2022/01/21 00:37:05;;;;;;;;;;;;;;;2.83;54.00;100125.25;4432622;32;35769;-84
2022/01/21 00:39:34;;;;;;;;;;;;;;;2.66;54.74;100112.28;4440637;32;35393;-86
2022/01/21 00:44:30;;;;;;;;;;;;;;;2.60;55.12;100109.97;4449062;32;33548;-82
2022/01/21 00:46:58;;;;;;;;;;;;;;;3.05;53.75;100117.84;4440950;32;35037;-86
2022/01/21 00:49:25;;;;;;;;;;;;;;;2.77;54.51;100117.75;4443378;32;32929;-85
2022/01/21 00:51:53;;;;;;;;;;;;;;;3.25;52.83;100109.62;4440687;32;32789;-85
2022/01/21 00:54:20;;;;;;;;;;;;;;;2.95;53.39;100101.75;4442820;32;35416;-82
2022/01/21 00:56:49;;;;;;;;;;;;;;;2.81;54.08;100114.84;4441151;32;34821;-82
2022/01/21 00:59:16;;;;;;;;;;;;;;;2.43;55.12;100133.72;4421130;32;34798;-87
2022/01/21 01:01:44;;;;;;;;;;;;;;;2.65;55.00;100138.63;4443587;32;32567;-85
2022/01/21 01:04:12;;;;;;;;;;;;;;;2.61;55.04;100135.31;4434229;32;33923;-83
2022/01/21 01:06:39;;;;;;;;;;;;;;;2.89;54.25;100138.06;4442598;32;35226;-85
2022/01/21 01:09:07;;;;;;;;;;;;;;;2.52;55.26;100140.25;4440864;32;35470;-82
2022/01/21 01:22:32;;;;;;;;;;;;;;;2.43;54.87;100146.00;4429852;32;32634;-86
2022/01/21 01:27:46;;;;;;;;;;;;;;;2.24;55.88;100151.41;4444549;32;34108;-84
2022/01/21 01:30:14;;;;;;;;;;;;;;;2.19;55.88;100158.72;4441757;32;33997;-87
2022/01/21 01:32:43;;;;;;;;;;;;;;;2.26;55.66;100156.59;4429444;32;33303;-85
2022/01/21 01:35:12;;;;;;;;;;;;;;;2.46;55.67;100156.34;4431063;32;33219;-87
2022/01/21 01:50:57;;;;;;;;;;;;;;;1.96;57.64;100176.63;4441043;32;33032;-85
2022/01/21 01:53:29;;;;;;;;;;;;;;;1.95;58.18;100183.63;4441208;32;33989;-83
2022/01/21 01:55:57;;;;;;;;;;;;;;;1.69;59.25;100185.94;4440472;32;35098;-84
2022/01/21 01:58:24;;;;;;;;;;;;;;;1.48;60.57;100187.00;4440334;32;34474;-86
2022/01/21 02:00:56;;;;;;;;;;;;;;;1.43;61.03;100189.87;4434399;32;34089;-83
2022/01/21 02:03:24;;;;;;;;;;;;;;;1.47;61.03;100194.06;4438681;32;33495;-86
2022/01/21 02:05:51;;;;;;;;;;;;;;;1.47;61.40;100188.81;4439886;32;33925;-84
2022/01/21 02:08:19;;;;;;;;;;;;;;;1.72;60.99;100188.38;4440010;32;35144;-85
2022/01/21 02:10:46;;;;;;;;;;;;;;;1.59;61.09;100193.41;4445073;32;34650;-86
2022/01/21 02:13:38;;;;;;;;;;;;;;;1.67;60.99;100187.75;4439094;32;33335;-85
2022/01/21 02:21:42;;;;;;;;;;;;;;;2.12;60.04;100178.34;4432799;32;34870;-86
2022/01/21 02:24:19;;;;;;;;;;;;;;;2.29;59.40;100166.91;4438535;32;33215;-85
2022/01/21 02:26:47;;;;;;;;;;;;;;;2.39;58.94;100168.09;4430578;32;34658;-86
2022/01/21 02:29:25;;;;;;;;;;;;;;;2.47;58.40;100156.25;4438630;32;34988;-82
2022/01/21 02:31:54;;;;;;;;;;;;;;;2.47;58.51;100156.25;4439205;32;34267;-85
2022/01/21 02:34:22;;;;;;;;;;;;;;;2.31;58.76;100160.66;4428491;32;33360;-85
2022/01/21 02:36:49;;;;;;;;;;;;;;;2.39;58.36;100163.72;4428755;32;34538;-84
2022/01/21 02:39:17;;;;;;;;;;;;;;;2.67;57.51;100164.69;4438509;32;35873;-85
2022/01/21 02:41:44;;;;;;;;;;;;;;;2.56;57.70;100155.75;4443009;32;34073;-82
2022/01/21 02:44:15;;;;;;;;;;;;;;;2.37;58.18;100154.22;4430862;32;32708;-87
2022/01/21 02:46:44;;;;;;;;;;;;;;;2.30;58.35;100142.34;4430161;32;33987;-84
2022/01/21 02:49:12;;;;;;;;;;;;;;;2.49;57.95;100145.66;4428936;32;36123;-81
2022/01/21 02:51:40;;;;;;;;;;;;;;;2.24;58.78;100161.09;4445222;32;34447;-85
2022/01/21 02:54:07;;;;;;;;;;;;;;;2.11;59.11;100163.53;4439946;32;32835;-84
2022/01/21 02:56:35;;;;;;;;;;;;;;;2.00;59.15;100165.87;4427383;32;34919;-82
2022/01/21 02:59:03;;;;;;;;;;;;;;;2.03;59.20;100155.22;4440182;32;33815;-84
2022/01/21 03:01:33;;;;;;;;;;;;;;;2.09;59.22;100162.75;4443092;32;34436;-87
2022/01/21 03:04:02;;;;;;;;;;;;;;;2.40;58.50;100159.28;4433153;32;33941;-85
2022/01/21 03:06:30;;;;;;;;;;;;;;;2.39;58.71;100161.09;4442573;32;34772;-85
2022/01/21 03:08:59;;;;;;;;;;;;;;;1.94;59.86;100176.69;4437901;32;35323;-85
2022/01/21 03:11:27;;;;;;;;;;;;;;;1.71;60.66;100171.78;4439233;32;35485;-84
2022/01/21 03:13:55;;;;;;;;;;;;;;;1.94;60.18;100170.56;4440445;32;33454;-84
2022/01/21 03:16:23;;;;;;;;;;;;;;;1.60;61.36;100181.16;4432293;32;34038;-81
2022/01/21 03:18:51;;;;;;;;;;;;;;;1.30;62.03;100191.44;4431958;32;34574;-85
2022/01/21 03:21:18;;;;;;;;;;;;;;;1.24;62.47;100186.50;4440396;32;34167;-86
2022/01/21 03:23:47;;;;;;;;;;;;;;;1.20;62.40;100184.97;4429939;32;33729;-86
2022/01/21 03:26:19;;;;;;;;;;;;;;;1.34;62.21;100192.13;4442869;32;33058;-85
2022/01/21 03:28:49;;;;;;;;;;;;;;;1.08;62.86;100198.69;4432487;32;34479;-86
2022/01/21 03:31:16;;;;;;;;;;;;;;;1.51;61.92;100207.84;4441789;32;34391;-87
2022/01/21 03:33:44;;;;;;;;;;;;;;;1.24;62.59;100217.09;4440644;32;33761;-85
2022/01/21 03:36:12;;;;;;;;;;;;;;;1.09;63.02;100213.47;4441742;32;34216;-85
2022/01/21 03:38:39;;;;;;;;;;;;;;;1.10;62.10;100209.91;4431065;32;35768;-83
2022/01/21 03:41:07;;;;;;;;;;;;;;;1.15;61.64;100209.69;4430782;32;34996;-85
2022/01/21 03:43:35;;;;;;;;;;;;;;;1.16;62.04;100211.38;4424653;32;31276;-81
2022/01/21 03:46:03;;;;;;;;;;;;;;;1.45;60.63;100203.78;4440349;32;33774;-85
2022/01/21 03:48:31;;;;;;;;;;;;;;;1.51;60.32;100200.00;4438882;32;35443;-85
2022/01/21 03:50:59;;;;;;;;;;;;;;;1.69;59.81;100197.25;4434306;32;34125;-86
2022/01/21 03:53:26;;;;;;;;;;;;;;;1.72;59.26;100196.25;4442238;32;33696;-84
2022/01/21 03:55:53;;;;;;;;;;;;;;;1.65;58.97;100195.72;4441662;32;34185;-82
2022/01/21 03:58:21;;;;;;;;;;;;;;;1.46;59.75;100194.97;4432437;32;34866;-87
2022/01/21 04:00:52;;;;;;;;;;;;;;;1.49;59.01;100194.81;4442157;32;35096;-86
2022/01/21 04:03:21;;;;;;;;;;;;;;;1.95;57.75;100193.25;4440945;32;33628;-84
2022/01/21 04:05:48;;;;;;;;;;;;;;;1.50;58.53;100198.31;4420698;32;33047;-89
2022/01/21 04:08:16;;;;;;;;;;;;;;;1.35;58.78;100193.81;4439974;32;35322;-82
2022/01/21 04:10:48;;;;;;;;;;;;;;;1.17;59.01;100192.13;4441976;32;34584;-86
2022/01/21 04:13:18;;;;;;;;;;;;;;;1.14;57.88;100195.72;4442624;32;32118;-85
2022/01/21 04:15:47;;;;;;;;;;;;;;;0.76;58.79;100199.38;4443854;32;33716;-82
2022/01/21 04:18:15;;;;;;;;;;;;;;;1.00;58.31;100189.47;4443410;32;35286;-83
2022/01/21 04:20:44;;;;;;;;;;;;;;;1.06;56.89;100204.91;4440745;32;35430;-84
2022/01/21 04:23:12;;;;;;;;;;;;;;;0.66;58.01;100200.75;4442711;32;31934;-84
2022/01/21 04:25:40;;;;;;;;;;;;;;;0.67;58.41;100199.81;4442395;32;33582;-85
2022/01/21 04:28:07;;;;;;;;;;;;;;;0.45;58.43;100203.53;4443757;32;33170;-82
2022/01/21 04:30:36;;;;;;;;;;;;;;;0.51;58.70;100203.25;4440905;32;34173;-88
2022/01/21 04:33:03;;;;;;;;;;;;;;;0.75;57.97;100220.44;4431010;32;33411;-85
2022/01/21 04:35:32;;;;;;;;;;;;;;;0.92;57.38;100225.66;4423445;32;34185;-81
2022/01/21 04:38:03;;;;;;;;;;;;;;;0.75;57.89;100229.09;4440638;32;35012;-87
2022/01/21 04:40:34;;;;;;;;;;;;;;;0.48;58.13;100229.56;4430340;32;36162;-83
2022/01/21 04:48:35;;;;;;;;;;;;;;;0.33;58.36;100238.13;4434702;32;34855;-85
2022/01/21 04:51:15;;;;;;;;;;;;;;;0.21;58.53;100244.75;4433822;32;33980;-87
2022/01/21 04:53:43;;;;;;;;;;;;;;;0.42;58.05;100249.03;4444626;32;33442;-85
2022/01/21 04:56:11;;;;;;;;;;;;;;;0.26;58.89;100255.88;4428780;32;33538;-85
2022/01/21 04:58:39;;;;;;;;;;;;;;;0.30;58.65;100253.97;4428657;32;35392;-85
2022/01/21 05:01:08;;;;;;;;;;;;;;;0.58;57.72;100255.22;4419433;32;34491;-84
2022/01/21 05:03:36;;;;;;;;;;;;;;;0.46;58.13;100250.56;4440037;32;32276;-85
2022/01/21 05:06:03;;;;;;;;;;;;;;;0.15;58.72;100246.78;4429577;32;33808;-86
2022/01/21 05:08:41;;;;;;;;;;;;;;;0.28;58.80;100259.25;4429709;32;35730;-86
2022/01/21 05:11:09;;;;;;;;;;;;;;;0.41;58.50;100252.53;4430902;32;34060;-87
2022/01/21 05:13:41;;;;;;;;;;;;;;;0.49;58.00;100249.59;4429657;32;32964;-85
2022/01/21 05:16:31;;;;;;;;;;;;;;;0.15;58.09;100260.75;4440861;32;34023;-86
2022/01/21 05:19:01;;;;;;;;;;;;;;;0.18;58.13;100265.81;4432127;32;34045;-86
2022/01/21 05:21:29;;;;;;;;;;;;;;;0.35;57.84;100258.06;4443796;32;34572;-86
2022/01/21 05:23:56;;;;;;;;;;;;;;;0.40;57.28;100268.31;4439385;32;33186;-84
2022/01/21 05:26:25;;;;;;;;;;;;;;;0.40;56.98;100284.84;4431489;32;33311;-87
2022/01/21 05:28:53;;;;;;;;;;;;;;;0.13;57.09;100283.47;4431706;32;35086;-86
2022/01/21 05:31:20;;;;;;;;;;;;;;;0.29;56.64;100289.72;4443166;32;35211;-86
2022/01/21 05:33:48;;;;;;;;;;;;;;;0.57;56.39;100291.97;4439032;32;32424;-87
2022/01/21 05:36:18;;;;;;;;;;;;;;;0.46;56.52;100296.81;4442358;32;34525;-87
2022/01/21 05:38:46;;;;;;;;;;;;;;;0.73;56.01;100296.41;4429931;32;35845;-88
2022/01/21 05:41:15;;;;;;;;;;;;;;;0.54;56.64;100298.19;4439942;32;35296;-81
2022/01/21 05:43:45;;;;;;;;;;;;;;;0.42;56.50;100292.66;4441872;32;33394;-85
2022/01/21 05:46:26;;;;;;;;;;;;;;;0.37;56.69;100292.84;4444392;32;33050;-86
2022/01/21 05:48:54;;;;;;;;;;;;;;;0.37;57.24;100294.63;4430995;32;34975;-88
2022/01/21 05:51:24;;;;;;;;;;;;;;;0.78;56.10;100306.69;4431245;32;34692;-82
2022/01/21 05:53:51;;;;;;;;;;;;;;;0.54;56.38;100308.66;4431089;32;33834;-83
2022/01/21 05:56:24;;;;;;;;;;;;;;;0.67;55.75;100307.16;4449301;32;33422;-82
2022/01/21 05:58:51;;;;;;;;;;;;;;;0.92;55.56;100312.09;4440251;32;35100;-84
2022/01/21 06:01:19;;;;;;;;;;;;;;;0.26;57.34;100317.78;4440905;32;34608;-84
2022/01/21 06:03:48;;;;;;;;;;;;;;;0.39;56.94;100311.94;4442487;32;32951;-85
2022/01/21 06:09:13;;;;;;;;;;;;;;;0.47;56.57;100327.34;4489869;26;37488;-81
2022/01/21 06:11:41;;;;;;;;;;;;;;;0.29;57.07;100336.00;4474969;32;34363;-82
2022/01/21 06:14:08;;;;;;;;;;;;;;;0.62;56.04;100342.34;4473835;32;32508;-81
2022/01/21 06:16:38;;;;;;;;;;;;;;;0.63;56.25;100357.97;4473635;32;35664;-84
2022/01/21 06:19:05;;;;;;;;;;;;;;;0.42;56.49;100361.56;4474479;32;35086;-81
2022/01/21 06:21:33;;;;;;;;;;;;;;;0.44;56.78;100369.31;4473752;32;34129;-77
2022/01/21 06:24:01;;;;;;;;;;;;;;;0.42;56.70;100376.41;4475510;32;33592;-78
2022/01/21 06:26:28;;;;;;;;;;;;;;;0.39;56.66;100389.63;4473907;32;34007;-78
2022/01/21 06:28:57;;;;;;;;;;;;;;;-0.17;58.33;100396.41;4474575;32;34696;-79
2022/01/21 06:31:24;;;;;;;;;;;;;;;0.36;56.81;100397.59;4472001;32;33970;-78
2022/01/21 06:33:52;;;;;;;;;;;;;;;0.61;56.14;100400.84;4472598;32;32751;-80
2022/01/21 06:36:19;;;;;;;;;;;;;;;0.71;55.71;100407.38;4472411;32;33652;-77
2022/01/21 06:38:46;;;;;;;;;;;;;;;0.43;56.33;100415.59;4471898;32;36131;-79
2022/01/21 06:41:14;;;;;;;;;;;;;;;0.70;55.84;100417.00;4472751;32;33922;-78
2022/01/21 06:43:41;;;;;;;;;;;;;;;0.49;56.64;100422.34;4471876;32;33382;-78
2022/01/21 06:46:09;;;;;;;;;;;;;;;0.32;56.52;100423.03;4474687;32;34310;-78
2022/01/21 06:48:37;;;;;;;;;;;;;;;0.23;57.01;100431.31;4474126;32;34043;-78
2022/01/21 06:51:07;;;;;;;;;;;;;;;0.03;57.76;100433.06;4474499;32;33924;-78
2022/01/21 06:53:35;;;;;;;;;;;;;;;-0.12;58.16;100436.28;4473339;32;32562;-78
2022/01/21 06:56:02;;;;;;;;;;;;;;;-0.34;58.46;100426.75;4462021;32;34907;-78
2022/01/21 06:58:30;;;;;;;;;;;;;;;-0.26;58.42;100440.37;4474399;32;34679;-85
2022/01/21 07:00:57;;;;;;;;;;;;;;;-0.29;58.61;100445.72;4473871;32;34814;-82
2022/01/21 07:03:25;;;;;;;;;;;;;;;-0.30;58.52;100451.88;4460720;32;32471;-78
2022/01/21 07:05:53;;;;;;;;;;;;;;;-0.34;58.39;100456.38;4472964;32;34705;-79
2022/01/21 07:08:20;;;;;;;;;;;;;;;0.23;56.85;100459.22;4454475;32;34233;-78
2022/01/21 07:10:48;;;;;;;;;;;;;;;0.37;56.15;100454.25;4474001;32;34889;-80
2022/01/21 07:13:15;;;;;;;;;;;;;;;0.44;56.14;100468.78;4474673;32;32731;-79
2022/01/21 07:15:42;;;;;;;;;;;;;;;0.41;55.96;100472.38;4474109;32;32075;-77
2022/01/21 07:18:10;;;;;;;;;;;;;;;0.24;56.64;100482.72;4472585;31;32951;-78
2022/01/21 07:20:37;;;;;;;;;;;;;;;0.56;55.60;100474.34;4461091;32;34902;-84
2022/01/21 07:23:04;;;;;;;;;;;;;;;0.81;54.55;100490.72;4473811;32;33337;-78
2022/01/21 07:25:32;;;;;;;;;;;;;;;0.75;54.61;100480.50;4460808;32;32305;-78
2022/01/21 07:28:01;;;;;;;;;;;;;;;0.38;55.48;100490.81;4473791;32;35360;-77
2022/01/21 07:30:28;;;;;;;;;;;;;;;0.49;55.09;100501.69;4474511;32;34853;-79
2022/01/21 07:32:56;;;;;;;;;;;;;;;0.49;55.09;100493.84;4476468;32;32529;-79
2022/01/21 07:35:23;;;;;;;;;;;;;;;0.85;54.23;100489.62;4473907;32;34155;-78
2022/01/21 07:38:10;;;;;;;;;;;;;;;0.64;54.52;100490.56;4464048;32;36091;-79
2022/01/21 07:40:38;;;;;;;;;;;;;;;0.65;54.37;100487.03;4460291;32;35333;-83
2022/01/21 07:43:05;;;;;;;;;;;;;;;0.74;54.37;100478.78;4462143;31;32449;-79
2022/01/21 07:45:33;;;;;;;;;;;;;;;0.84;54.42;100467.00;4460867;32;32927;-77
2022/01/21 07:48:00;;;;;;;;;;;;;;;0.72;53.67;100472.78;4472550;32;34280;-78
2022/01/21 07:50:31;;;;;;;;;;;;;;;0.60;53.77;100459.38;4474517;32;34813;-77
2022/01/21 07:52:59;;;;;;;;;;;;;;;0.39;54.05;100449.81;4461636;32;32471;-80
2022/01/21 07:55:27;;;;;;;;;;;;;;;0.31;54.13;100457.97;4473791;32;32414;-79
2022/01/21 07:57:54;;;;;;;;;;;;;;;0.47;54.09;100456.41;4460135;32;35188;-84
2022/01/21 08:00:21;;;;;;;;;;;;;;;0.61;53.28;100455.81;4476776;32;34733;-78
2022/01/21 08:02:48;;;;;;;;;;;;;;;0.66;52.89;100459.94;4473658;32;33727;-78
2022/01/21 08:05:17;;;;;;;;;;;;;;;0.50;52.97;100468.53;4460674;32;34296;-79
2022/01/21 08:07:44;;;;;;;;;;;;;;;0.43;52.85;100474.94;4474911;31;35248;-78
2022/01/21 08:10:11;;;;;;;;;;;;;;;0.63;52.49;100485.41;4476856;32;33992;-77
2022/01/21 08:12:39;;;;;;;;;;;;;;;0.50;52.54;100479.84;4460380;32;34356;-79
2022/01/21 08:15:06;;;;;;;;;;;;;;;1.08;51.55;100472.91;4474748;32;34500;-79
2022/01/21 08:17:33;;;;;;;;;;;;;;;0.78;52.27;100485.56;4459016;32;34600;-78
2022/01/21 08:20:04;;;;;;;;;;;;;;;0.66;52.21;100475.66;4465742;32;34255;-80
2022/01/21 08:22:31;;;;;;;;;;;;;;;0.80;52.03;100465.44;4472970;32;33280;-78
2022/01/21 08:24:59;;;;;;;;;;;;;;;0.93;51.88;100450.87;4475164;32;35033;-80
2022/01/21 08:27:26;;;;;;;;;;;;;;;0.64;51.54;100445.22;4461002;32;34146;-80
2022/01/21 08:29:54;;;;;;;;;;;;;;;0.68;51.76;100452.84;4474402;32;34799;-79
2022/01/21 08:32:22;;;;;;;;;;;;;;;0.77;51.70;100438.53;4460313;32;32151;-78
2022/01/21 08:34:50;;;;;;;;;;;;;;;0.64;52.18;100453.06;4473151;32;32339;-78
2022/01/21 08:37:18;;;;;;;;;;;;;;;0.73;52.21;100445.66;4474976;31;35697;-79
2022/01/21 08:39:45;;;;;;;;;;;;;;;0.80;52.21;100448.84;4472376;32;34057;-79
2022/01/21 08:42:12;;;;;;;;;;;;;;;1.10;51.18;100455.34;4463539;32;33033;-79
2022/01/21 08:44:40;;;;;;;;;;;;;;;0.80;51.66;100449.72;4472393;32;33727;-79
2022/01/21 08:47:10;;;;;;;;;;;;;;;0.48;52.40;100465.13;4473492;32;34519;-80
2022/01/21 08:49:39;;;;;;;;;;;;;;;0.61;52.23;100466.28;4473423;32;34752;-80
2022/01/21 08:52:06;;;;;;;;;;;;;;;0.94;51.72;100483.16;4471966;32;33466;-77
2022/01/21 08:54:34;;;;;;;;;;;;;;;1.12;50.48;100482.34;4472725;32;34776;-80
2022/01/21 08:57:01;;;;;;;;;;;;;;;0.87;51.05;100505.28;4460725;32;34911;-81
2022/01/21 08:59:37;;;;;;;;;;;;;;;0.91;50.14;100499.00;4472926;32;34175;-79
2022/01/21 09:02:07;;;;;;;;;;;;;;;1.26;49.26;100507.00;4475242;32;33812;-78
2022/01/21 09:04:51;;;;;;;;;;;;;;;1.26;49.85;100514.87;4461719;32;34008;-78
2022/01/21 09:07:19;;;;;;;;;;;;;;;1.39;49.22;100510.75;4473726;32;34621;-77
2022/01/21 09:09:46;;;;;;;;;;;;;;;1.02;50.00;100521.19;4475430;32;34988;-85
2022/01/21 09:12:14;;;;;;;;;;;;;;;1.39;48.89;100509.91;4473344;32;33482;-79
2022/01/21 09:14:41;;;;;;;;;;;;;;;1.17;48.75;100511.78;4474646;32;34014;-81
2022/01/21 09:17:08;;;;;;;;;;;;;;;1.44;48.85;100518.41;4474133;32;35102;-79
2022/01/21 09:19:36;;;;;;;;;;;;;;;1.10;49.23;100518.22;4459307;32;35087;-79
2022/01/21 09:22:03;;;;;;;;;;;;;;;1.36;49.17;100518.78;4473006;32;33167;-79
2022/01/21 09:24:32;;;;;;;;;;;;;;;1.21;49.33;100523.81;4474552;32;34107;-80
2022/01/21 09:27:00;;;;;;;;;;;;;;;1.60;49.52;100524.66;4472856;32;36105;-83
2022/01/21 09:29:28;;;;;;;;;;;;;;;1.67;48.82;100537.41;4473637;32;34770;-80
2022/01/21 09:31:55;;;;;;;;;;;;;;;1.98;48.57;100528.97;4473178;32;33564;-80
2022/01/21 09:34:24;;;;;;;;;;;;;;;1.88;47.39;100533.78;4472694;32;33934;-79
2022/01/21 09:36:52;;;;;;;;;;;;;;;1.74;48.07;100541.47;4473441;32;35419;-84
2022/01/21 09:39:22;;;;;;;;;;;;;;;2.00;47.39;100537.59;4473710;32;35140;-81
2022/01/21 09:41:54;;;;;;;;;;;;;;;2.16;47.53;100541.19;4474967;32;33407;-79
2022/01/21 09:44:21;;;;;;;;;;;;;;;2.09;47.90;100539.78;4473581;32;32200;-79
2022/01/21 09:46:50;;;;;;;;;;;;;;;2.10;47.86;100557.22;4473738;32;36204;-78
2022/01/21 09:51:49;;;;;;;;;;;;;;;2.07;47.93;100539.84;4474430;32;33804;-79
2022/01/21 09:54:16;;;;;;;;;;;;;;;2.51;47.69;100543.78;4460599;32;33490;-80
2022/01/21 09:56:45;;;;;;;;;;;;;;;2.89;46.92;100542.72;4474372;32;35855;-77
2022/01/21 09:59:17;;;;;;;;;;;;;;;2.91;46.91;100551.34;4474400;32;34447;-77
2022/01/21 10:01:48;;;;;;;;;;;;;;;2.86;47.17;100542.88;4474381;32;32926;-83
2022/01/21 10:04:17;;;;;;;;;;;;;;;3.06;45.47;100543.53;4472891;32;32897;-83
2022/01/21 10:06:46;;;;;;;;;;;;;;;3.16;45.83;100538.66;4473780;32;36760;-77
2022/01/21 10:09:16;;;;;;;;;;;;;;;2.74;46.93;100536.47;4460386;32;34407;-79
2022/01/21 10:11:48;;;;;;;;;;;;;;;3.16;46.36;100541.28;4459630;32;31633;-77
2022/01/21 10:14:16;;;;;;;;;;;;;;;2.81;47.08;100527.34;4473775;32;35101;-79
2022/01/21 10:16:43;;;;;;;;;;;;;;;3.10;46.10;100521.44;4473918;32;33275;-78
2022/01/21 10:19:11;;;;;;;;;;;;;;;2.59;46.84;100532.91;4473831;32;34792;-79
2022/01/21 10:21:39;;;;;;;;;;;;;;;2.89;46.32;100527.81;4463540;31;31719;-79
2022/01/21 10:24:08;;;;;;;;;;;;;;;3.04;47.13;100534.03;4473801;31;32852;-79
2022/01/21 10:26:35;;;;;;;;;;;;;;;3.53;46.38;100525.25;4472406;32;35222;-79
2022/01/21 10:29:02;;;;;;;;;;;;;;;3.02;46.49;100533.25;4473587;32;34083;-79
2022/01/21 10:31:30;;;;;;;;;;;;;;;2.69;47.41;100535.00;4448552;32;32589;-81
2022/01/21 10:34:02;;;;;;;;;;;;;;;2.86;46.86;100527.94;4474796;32;34577;-79
2022/01/21 10:36:33;;;;;;;;;;;;;;;2.98;47.29;100524.69;4475465;32;35003;-79
2022/01/21 10:39:14;;;;;;;;;;;;;;;2.71;47.02;100517.38;4475226;32;34487;-79
2022/01/21 10:41:42;;;;;;;;;;;;;;;2.81;47.71;100532.59;4473810;32;33109;-79
2022/01/21 10:44:14;;;;;;;;;;;;;;;3.13;47.21;100528.31;4474887;32;34060;-78
2022/01/21 10:46:46;;;;;;;;;;;;;;;2.47;48.11;100529.13;4475573;32;34542;-79
2022/01/21 10:49:14;;;;;;;;;;;;;;;2.60;48.46;100534.59;4475773;32;35314;-83
2022/01/21 10:51:48;;;;;;;;;;;;;;;2.77;48.34;100532.84;4475190;32;33428;-79
2022/01/21 10:54:22;;;;;;;;;;;;;;;2.78;47.65;100537.16;4476529;32;33384;-84
2022/01/21 10:57:05;;;;;;;;;;;;;;;2.72;47.74;100535.69;4475936;32;36119;-81
2022/01/21 10:59:53;;;;;;;;;;;;;;;2.72;47.72;100543.56;4473560;32;35437;-83
2022/01/21 11:02:28;;;;;;;;;;;;;;;2.61;47.82;100537.16;4474125;32;32879;-79
2022/01/21 11:04:59;;;;;;;;;;;;;;;2.48;48.53;100541.31;4461257;32;33520;-81
2022/01/21 11:07:45;;;;;;;;;;;;;;;2.45;48.75;100527.50;4474286;32;35011;-81
2022/01/21 11:10:33;;;;;;;;;;;;;;;2.09;49.57;100527.53;4474631;32;34526;-80
2022/01/21 11:13:21;;;;;;;;;;;;;;;1.97;50.28;100530.72;4450976;32;33239;-79
2022/01/21 11:15:50;;;;;;;;;;;;;;;1.44;51.08;100527.16;4464598;32;33696;-79
2022/01/21 11:18:48;;;;;;;;;;;;;;;1.81;50.74;100516.62;4474277;32;34537;-78
2022/01/21 11:21:16;;;;;;;;;;;;;;;2.13;50.60;100515.06;4472328;32;33001;-80
2022/01/21 11:23:43;;;;;;;;;;;;;;;1.91;50.44;100503.94;4459747;32;33961;-80
2022/01/21 11:26:14;;;;;;;;;;;;;;;2.58;49.14;100497.91;4474024;32;33987;-81
2022/01/21 11:28:48;;;;;;;;;;;;;;;2.31;49.61;100499.28;4476079;32;35984;-81
2022/01/21 11:31:17;;;;;;;;;;;;;;;2.19;48.93;100493.78;4475294;32;35297;-82
2022/01/21 11:34:05;;;;;;;;;;;;;;;2.18;49.47;100482.44;4475592;32;33375;-80
2022/01/21 11:36:33;;;;;;;;;;;;;;;2.44;48.43;100482.00;4462109;32;34048;-78
2022/01/21 11:39:00;;;;;;;;;;;;;;;2.29;49.23;100480.16;4476071;32;35342;-80
2022/01/21 11:41:28;;;;;;;;;;;;;;;2.30;48.86;100478.34;4474125;32;34328;-78
2022/01/21 11:44:00;;;;;;;;;;;;;;;2.21;48.56;100460.44;4462712;32;34010;-78
2022/01/21 11:49:06;;;;;;;;;;;;;;;2.14;48.87;100435.41;4463505;32;35053;-80
2022/01/21 11:51:34;;;;;;;;;;;;;;;2.20;48.34;100422.88;4475080;32;34446;-80
2022/01/21 11:54:05;;;;;;;;;;;;;;;2.28;47.46;100406.72;4476713;32;32700;-80
2022/01/21 11:56:37;;;;;;;;;;;;;;;2.54;47.44;100404.44;4477201;32;34693;-78
2022/01/21 11:59:08;;;;;;;;;;;;;;;2.23;47.84;100408.72;4474502;32;34851;-83
2022/01/21 12:01:46;;;;;;;;;;;;;;;2.01;48.30;100397.59;4476967;32;33905;-80
2022/01/21 12:04:29;;;;;;;;;;;;;;;2.42;47.69;100398.97;4474741;32;33589;-82
2022/01/21 12:07:00;;;;;;;;;;;;;;;2.93;46.40;100384.78;4474666;32;34381;-83
2022/01/21 12:09:46;;;;;;;;;;;;;;;3.01;46.13;100379.13;4474853;32;35825;-81
2022/01/21 12:12:16;;;;;;;;;;;;;;;3.26;45.76;100380.34;4477378;32;34707;-79
2022/01/21 12:14:49;;;;;;;;;;;;;;;3.45;45.04;100373.13;4475163;32;33386;-78
2022/01/21 12:17:50;;;;;;;;;;;;;;;3.81;44.47;100373.69;4462343;32;34502;-78
2022/01/21 12:20:18;;;;;;;;;;;;;;;3.79;44.36;100378.16;4476367;32;35376;-81
2022/01/21 12:23:05;;;;;;;;;;;;;;;3.80;44.29;100379.00;4474332;32;34816;-80
2022/01/21 12:25:32;;;;;;;;;;;;;;;3.72;44.61;100375.97;4475140;32;32924;-79
2022/01/21 12:28:16;;;;;;;;;;;;;;;3.77;43.63;100366.88;4462021;32;34480;-83
2022/01/21 12:31:02;;;;;;;;;;;;;;;3.97;43.23;100385.00;4474531;32;35312;-79
2022/01/21 12:34:09;;;;;;;;;;;;;;;3.78;43.39;100373.00;4475237;32;34792;-82
2022/01/21 12:36:41;;;;;;;;;;;;;;;3.54;43.72;100395.44;4476700;32;34042;-79
2022/01/21 12:39:27;;;;;;;;;;;;;;;3.86;44.39;100365.50;4475206;32;34193;-78
2022/01/21 12:41:57;;;;;;;;;;;;;;;3.72;44.25;100384.72;4473941;31;35866;-78
2022/01/21 12:44:29;;;;;;;;;;;;;;;4.23;43.59;100391.34;4474920;32;34342;-79
2022/01/21 12:46:56;;;;;;;;;;;;;;;4.18;43.05;100383.75;4473942;32;34096;-78
2022/01/21 12:49:27;;;;;;;;;;;;;;;4.23;43.18;100386.09;4475318;32;34156;-78
2022/01/21 12:52:09;;;;;;;;;;;;;;;4.32;43.99;100391.69;4476071;32;35249;-78
2022/01/21 12:57:30;;;;;;;;;;;;;;;4.17;42.68;100405.72;4473967;32;33807;-78
2022/01/21 12:59:59;;;;;;;;;;;;;;;4.13;42.88;100398.09;4473682;32;34729;-81
2022/01/21 13:02:27;;;;;;;;;;;;;;;4.24;42.88;100396.53;4473481;32;35328;-81
2022/01/21 13:05:01;;;;;;;;;;;;;;;4.07;42.93;100406.37;4474060;32;34044;-78
2022/01/21 13:07:34;;;;;;;;;;;;;;;4.22;43.06;100416.87;4473821;32;33052;-80
2022/01/21 13:10:02;;;;;;;;;;;;;;;4.36;42.96;100430.06;4474225;32;33813;-79
2022/01/21 13:12:47;;;;;;;;;;;;;;;4.11;42.97;100419.28;4460586;32;34264;-80
2022/01/21 13:15:14;;;;;;;;;;;;;;;4.56;42.73;100416.56;4475028;32;34084;-80
2022/01/21 13:17:42;;;;;;;;;;;;;;;4.63;42.88;100424.94;4461338;32;33967;-79
2022/01/21 13:20:09;;;;;;;;;;;;;;;4.56;41.21;100418.34;4476414;32;34183;-80
2022/01/21 13:22:36;;;;;;;;;;;;;;;4.37;41.28;100415.12;4475771;32;35774;-77
2022/01/21 13:25:09;;;;;;;;;;;;;;;4.49;40.76;100428.41;4461167;32;32879;-81
2022/01/21 13:27:37;;;;;;;;;;;;;;;4.50;40.69;100422.19;4474340;32;34146;-81
2022/01/21 13:30:09;;;;;;;;;;;;;;;4.92;39.68;100430.13;4460801;32;33144;-80
2022/01/21 13:32:36;;;;;;;;;;;;;;;4.75;38.90;100417.16;4474785;31;35314;-78
2022/01/21 13:35:13;;;;;;;;;;;;;;;4.42;39.68;100424.44;4448794;32;34023;-80
2022/01/21 13:37:41;;;;;;;;;;;;;;;5.25;39.15;100416.66;4473967;31;32245;-79
2022/01/21 13:40:09;;;;;;;;;;;;;;;4.97;39.32;100432.50;4472847;32;33671;-78
2022/01/21 13:42:36;;;;;;;;;;;;;;;5.10;38.79;100425.53;4474868;32;35035;-83
2022/01/21 13:45:08;;;;;;;;;;;;;;;5.57;37.60;100400.47;4460401;32;34765;-80
2022/01/21 13:47:40;;;;;;;;;;;;;;;6.01;36.25;100394.06;4461121;32;33180;-79
2022/01/21 13:50:17;;;;;;;;;;;;;;;6.23;36.53;100389.03;4474917;32;34328;-79
2022/01/21 13:52:46;;;;;;;;;;;;;;;6.47;36.31;100366.25;4474562;32;36406;-79
2022/01/21 13:55:25;;;;;;;;;;;;;;;6.15;36.41;100370.19;4446792;32;35033;-80
2022/01/21 13:57:53;;;;;;;;;;;;;;;5.80;36.35;100370.84;4474540;32;32992;-79
2022/01/21 14:00:31;;;;;;;;;;;;;;;5.65;37.23;100383.22;4473232;32;33820;-84
2022/01/21 14:03:00;;;;;;;;;;;;;;;5.81;37.10;100380.47;4472782;32;34228;-77